Time;durP1;ratioP1;P1;durP2;ratioP2;P2;SDS_P1;SDS_P2;PMS_P1;PMS_P2;Temp;Humidity;BMP_temperature;BMP_pressure;BME280_temperature;BME280_humidity;BME280_pressure;Samples;Min_cycle;Max_cycle;Signal;HPM_P1;HPM_P2
2023/09/10 00:02:27;;;;;;;9.75;6.90;;;;;;;17.96;100.00;100774.81;6338784;28;20042;-89
2023/09/10 00:05:33;;;;;;;10.35;6.97;;;;;;;17.93;100.00;100775.16;6335837;28;20043;-89
2023/09/10 00:08:35;;;;;;;8.52;7.30;;;;;;;17.89;100.00;100776.44;6319208;28;20050;-89
2023/09/10 00:11:37;;;;;;;9.70;6.90;;;;;;;17.85;100.00;100775.97;6324807;28;20114;-89
2023/09/10 00:14:40;;;;;;;8.82;6.75;;;;;;;17.82;100.00;100782.34;6334318;28;20533;-89
2023/09/10 00:17:42;;;;;;;10.02;6.63;;;;;;;17.80;100.00;100778.25;6331575;28;20039;-89
2023/09/10 00:20:43;;;;;;;7.07;6.38;;;;;;;17.77;100.00;100775.94;6320914;28;20126;-89
2023/09/10 00:23:45;;;;;;;9.27;6.28;;;;;;;17.74;100.00;100773.63;6339989;28;20043;-89
2023/09/10 00:26:48;;;;;;;9.63;6.30;;;;;;;17.71;100.00;100785.25;6328336;28;20036;-89
2023/09/10 00:29:50;;;;;;;9.02;5.95;;;;;;;17.66;100.00;100777.06;6318158;28;20394;-90
2023/09/10 00:32:54;;;;;;;9.30;6.63;;;;;;;17.66;100.00;100777.06;6327278;28;20039;-89
2023/09/10 00:35:56;;;;;;;8.57;6.47;;;;;;;17.63;100.00;100780.00;6339506;28;20111;-89
2023/09/10 00:38:58;;;;;;;7.25;6.03;;;;;;;17.59;100.00;100781.31;6331060;28;20481;-89
2023/09/10 00:42:00;;;;;;;8.65;5.78;;;;;;;17.55;100.00;100786.03;6334030;28;20500;-89
2023/09/10 00:45:07;;;;;;;7.10;6.30;;;;;;;17.51;100.00;100783.91;6339157;28;20044;-89
2023/09/10 00:48:09;;;;;;;6.60;5.45;;;;;;;17.49;100.00;100785.84;6341424;28;20048;-89
2023/09/10 00:51:11;;;;;;;6.03;5.40;;;;;;;17.47;100.00;100782.59;6332506;28;20409;-89
2023/09/10 00:54:15;;;;;;;7.60;6.43;;;;;;;17.43;100.00;100788.13;6333453;28;20123;-89
2023/09/10 00:57:17;;;;;;;6.55;5.90;;;;;;;17.36;100.00;100792.34;6326892;28;20051;-89
2023/09/10 01:00:20;;;;;;;6.20;5.57;;;;;;;17.32;100.00;100783.22;6324814;28;20522;-89
2023/09/10 01:03:23;;;;;;;7.85;5.68;;;;;;;17.27;100.00;100788.09;6340025;28;20043;-89
2023/09/10 01:06:26;;;;;;;7.88;5.88;;;;;;;17.21;100.00;100788.72;6334456;28;20031;-89
2023/09/10 01:09:28;;;;;;;7.13;6.43;;;;;;;17.15;100.00;100790.16;6341484;28;20035;-89
2023/09/10 01:12:55;;;;;;;9.75;7.13;;;;;;;17.09;100.00;100784.75;6331316;28;20494;-89
2023/09/10 01:16:16;;;;;;;7.10;5.80;;;;;;;17.04;100.00;100785.22;6319747;28;20048;-89
2023/09/10 01:19:29;;;;;;;;;;;;;;;17.01;100.00;100781.09;6343554;28;20067;-89
2023/09/10 01:22:37;;;;;;;8.88;5.80;;;;;;;16.97;100.00;100779.00;6321255;27;19923;-89
2023/09/10 01:25:40;;;;;;;6.05;5.45;;;;;;;16.97;100.00;100779.81;6327730;28;20630;-89
2023/09/10 01:28:42;;;;;;;6.22;5.30;;;;;;;16.98;100.00;100789.28;6343780;28;20060;-89
2023/09/10 01:31:48;;;;;;;11.98;6.00;;;;;;;17.00;100.00;100791.75;6333447;28;20046;-89
2023/09/10 01:35:02;;;;;;;6.63;5.57;;;;;;;17.00;100.00;100787.34;6336586;28;20043;-89
2023/09/10 01:38:16;;;;;;;11.05;6.70;;;;;;;16.99;100.00;100785.72;6336858;28;20486;-89
2023/09/10 01:41:19;;;;;;;11.68;6.68;;;;;;;16.98;100.00;100784.03;6329361;28;20097;-89
2023/09/10 01:44:22;;;;;;;9.38;6.20;;;;;;;17.00;100.00;100791.75;6339066;28;20398;-89
2023/09/10 01:47:24;;;;;;;7.75;6.45;;;;;;;17.00;100.00;100787.34;6340544;28;20387;-89
2023/09/10 01:50:29;;;;;;;10.88;6.25;;;;;;;16.99;100.00;100785.72;6339870;28;20562;-89
2023/09/10 01:53:30;;;;;;;7.93;6.45;;;;;;;16.99;100.00;100790.09;6338313;28;20047;-89
2023/09/10 01:56:32;;;;;;;6.47;5.68;;;;;;;16.96;100.00;100788.59;6339982;28;20040;-89
2023/09/10 02:00:22;;;;;;;7.55;6.03;;;;;;;16.95;100.00;100799.25;6342227;28;20591;-89
2023/09/10 02:04:00;;;;;;;7.15;5.78;;;;;;;16.90;100.00;100791.88;6337399;28;20050;-88
2023/09/10 02:07:02;;;;;;;6.63;5.90;;;;;;;16.85;100.00;100799.34;6329107;28;20032;-89
2023/09/10 02:10:04;;;;;;;7.72;5.75;;;;;;;16.84;100.00;100802.94;6335744;28;20405;-89
2023/09/10 02:13:06;;;;;;;7.10;6.18;;;;;;;16.83;100.00;100800.47;6331252;28;20035;-89
2023/09/10 02:16:08;;;;;;;9.07;6.70;;;;;;;16.81;100.00;100800.63;6329292;28;20035;-89
2023/09/10 02:19:10;;;;;;;7.65;6.78;;;;;;;16.81;100.00;100803.25;6337322;28;20055;-89
2023/09/10 02:22:12;;;;;;;7.45;6.20;;;;;;;16.80;100.00;100804.22;6331571;28;20048;-89
2023/09/10 02:25:14;;;;;;;8.50;6.55;;;;;;;16.78;100.00;100808.78;6328281;28;20244;-89
2023/09/10 02:28:21;;;;;;;7.75;6.28;;;;;;;16.79;100.00;100806.03;6332721;28;20056;-89
2023/09/10 02:31:24;;;;;;;9.40;6.38;;;;;;;16.78;100.00;100812.22;6326195;28;20039;-89
2023/09/10 02:34:26;;;;;;;8.65;6.32;;;;;;;16.78;100.00;100814.84;6339926;28;20093;-89
2023/09/10 02:37:28;;;;;;;8.18;6.45;;;;;;;16.77;100.00;100821.03;6328720;28;20512;-89
2023/09/10 02:40:30;;;;;;;10.00;7.05;;;;;;;16.79;100.00;100826.94;6330062;28;20048;-89
2023/09/10 02:43:32;;;;;;;8.27;6.95;;;;;;;16.80;100.00;100825.16;6334847;28;20066;-89
2023/09/10 02:46:34;;;;;;;9.65;7.63;;;;;;;16.84;100.00;100829.06;6341019;28;20273;-89
2023/09/10 02:49:36;;;;;;;8.63;7.55;;;;;;;16.83;100.00;100830.06;6333049;28;20433;-89
2023/09/10 02:52:38;;;;;;;10.18;9.00;;;;;;;16.85;100.00;100828.13;6336517;28;20035;-89
2023/09/10 02:55:40;;;;;;;10.57;8.52;;;;;;;16.88;100.00;100835.66;6334980;28;20445;-89
2023/09/10 02:58:42;;;;;;;13.32;9.88;;;;;;;16.95;100.00;100835.84;6339093;28;20044;-89
2023/09/10 03:01:44;;;;;;;12.65;10.10;;;;;;;17.00;100.00;100839.63;6339814;28;20043;-89
2023/09/10 03:04:46;;;;;;;13.88;10.85;;;;;;;17.04;100.00;100834.91;6330348;28;20165;-89
2023/09/10 03:07:51;;;;;;;12.32;10.45;;;;;;;17.06;100.00;100832.97;6329810;28;20139;-89
2023/09/10 03:10:53;;;;;;;14.55;11.02;;;;;;;17.13;100.00;100833.97;6321578;28;20047;-89
2023/09/10 03:13:56;;;;;;;14.73;11.55;;;;;;;17.02;100.00;100836.88;6336441;28;20043;-89
2023/09/10 03:16:59;;;;;;;15.70;11.23;;;;;;;16.98;100.00;100836.34;6324492;28;20051;-89
2023/09/10 03:20:01;;;;;;;13.85;11.30;;;;;;;16.93;100.00;100830.78;6309982;28;20048;-89
2023/09/10 03:23:06;;;;;;;13.95;11.35;;;;;;;16.92;100.00;100834.38;6337824;28;20075;-89
2023/09/10 03:26:11;;;;;;;14.68;11.55;;;;;;;16.93;100.00;100837.81;6318675;28;20040;-89
2023/09/10 03:29:13;;;;;;;14.68;12.15;;;;;;;16.91;100.00;100837.13;6320087;28;20051;-89
2023/09/10 03:32:15;;;;;;;16.85;13.48;;;;;;;16.90;100.00;100838.94;6324333;28;20032;-89
2023/09/10 03:35:22;;;;;;;19.73;13.13;;;;;;;16.89;100.00;100841.69;6333140;28;20592;-89
2023/09/10 03:38:25;;;;;;;17.05;12.55;;;;;;;16.84;100.00;100833.50;6336739;28;20039;-89
2023/09/10 03:41:27;;;;;;;14.07;11.30;;;;;;;16.76;100.00;100829.00;6333387;28;20272;-89
2023/09/10 03:44:29;;;;;;;15.48;10.88;;;;;;;16.68;100.00;100829.78;6327202;28;20036;-89
2023/09/10 03:47:33;;;;;;;15.23;10.65;;;;;;;16.58;100.00;100829.88;6315416;28;20040;-89
2023/09/10 03:50:36;;;;;;;12.15;10.63;;;;;;;16.51;100.00;100825.41;6316058;28;20092;-89
2023/09/10 03:53:38;;;;;;;15.38;11.52;;;;;;;16.43;100.00;100823.56;6328833;28;20048;-89
2023/09/10 03:56:39;;;;;;;13.85;10.95;;;;;;;16.39;100.00;100827.44;6319531;28;20485;-89
2023/09/10 03:59:41;;;;;;;14.98;11.45;;;;;;;16.34;100.00;100821.84;6336968;28;20044;-89
2023/09/10 04:02:45;;;;;;;16.58;11.32;;;;;;;16.30;100.00;100818.72;6321512;28;20516;-89
2023/09/10 04:05:47;;;;;;;13.75;10.75;;;;;;;16.27;100.00;100824.25;6334974;28;20075;-89
2023/09/10 04:08:49;;;;;;;14.70;12.20;;;;;;;16.22;100.00;100828.28;6327577;28;20119;-89
2023/09/10 04:11:52;;;;;;;18.48;12.60;;;;;;;16.19;100.00;100829.41;6347320;27;20071;-89
2023/09/10 04:14:55;;;;;;;16.35;12.10;;;;;;;16.16;100.00;100827.09;6334756;28;20096;-89
2023/09/10 04:17:57;;;;;;;15.20;12.90;;;;;;;16.16;100.00;100837.53;6333560;28;20070;-89
2023/09/10 04:20:59;;;;;;;16.15;13.35;;;;;;;16.15;100.00;100831.50;6337752;28;20058;-89
2023/09/10 04:24:01;;;;;;;14.10;11.98;;;;;;;16.14;100.00;100829.03;6333310;28;20501;-89
2023/09/10 04:27:03;;;;;;;13.85;10.95;;;;;;;16.14;100.00;100829.03;6320524;28;20047;-89
2023/09/10 04:30:07;;;;;;;14.95;10.40;;;;;;;16.13;100.00;100830.81;6330885;28;20047;-89
2023/09/10 04:33:10;;;;;;;18.15;11.48;;;;;;;16.13;100.00;100838.66;6337880;28;20572;-89
2023/09/10 04:36:14;;;;;;;13.23;10.30;;;;;;;16.11;100.00;100837.97;6324453;28;20040;-89
2023/09/10 04:39:17;;;;;;;13.55;10.10;;;;;;;16.04;100.00;100842.16;6324934;28;20036;-89
2023/09/10 04:42:19;;;;;;;13.70;11.82;;;;;;;16.04;100.00;100850.00;6325331;28;20434;-89
2023/09/10 04:45:22;;;;;;;15.52;11.82;;;;;;;16.07;100.00;100847.09;6325966;28;20086;-89
2023/09/10 04:48:24;;;;;;;15.18;12.00;;;;;;;16.08;100.00;100846.13;6336454;28;21029;-89
2023/09/10 04:51:26;;;;;;;17.17;12.88;;;;;;;16.07;100.00;100847.09;6336821;28;20040;-89
2023/09/10 04:54:28;;;;;;;17.33;13.60;;;;;;;16.10;100.00;100848.59;6337211;28;20423;-89
2023/09/10 04:57:30;;;;;;;17.10;13.18;;;;;;;16.10;100.00;100849.41;6334956;28;20032;-89
2023/09/10 05:00:32;;;;;;;19.27;14.02;;;;;;;16.17;100.00;100859.25;6329954;28;20519;-89
2023/09/10 05:03:35;;;;;;;20.38;14.48;;;;;;;16.17;100.00;100867.09;6327861;28;20059;-89
2023/09/10 05:06:37;;;;;;;18.48;13.05;;;;;;;16.21;100.00;100871.06;6337764;28;20181;-89
2023/09/10 05:09:39;;;;;;;16.70;11.93;;;;;;;16.26;100.00;100874.84;6324983;28;20492;-89
2023/09/10 05:12:42;;;;;;;17.52;13.65;;;;;;;16.28;100.00;100877.31;6333630;28;20047;-89
2023/09/10 05:15:46;;;;;;;18.60;13.10;;;;;;;16.28;100.00;100875.53;6333827;28;20044;-89
2023/09/10 05:18:49;;;;;;;13.88;10.77;;;;;;;16.28;100.00;100877.31;6313281;28;20048;-89
2023/09/10 05:21:52;;;;;;;13.40;10.23;;;;;;;16.29;100.00;100877.16;6332814;28;20085;-89
2023/09/10 05:24:54;;;;;;;11.63;9.85;;;;;;;16.30;100.00;100884.03;6329559;28;20071;-89
2023/09/10 05:27:56;;;;;;;12.80;10.95;;;;;;;16.29;100.00;100882.38;6310560;28;20044;-89
2023/09/10 05:31:05;;;;;;;14.32;9.48;;;;;;;16.34;100.00;100889.78;6328663;28;20039;-89
2023/09/10 05:34:07;;;;;;;12.57;10.40;;;;;;;16.36;100.00;100893.06;6327671;28;20048;-89
2023/09/10 05:37:09;;;;;;;16.60;12.98;;;;;;;16.39;100.00;100892.75;6317171;28;20414;-89
2023/09/10 05:40:11;;;;;;;14.63;11.52;;;;;;;16.45;100.00;100897.41;6331235;28;20044;-89
2023/09/10 05:43:13;;;;;;;18.10;14.23;;;;;;;16.51;100.00;100894.16;6321853;28;20059;-89
2023/09/10 05:46:16;;;;;;;16.95;13.50;;;;;;;16.55;100.00;100897.31;6336898;28;20035;-89
2023/09/10 05:49:18;;;;;;;25.27;18.27;;;;;;;16.65;100.00;100899.84;6340951;28;20080;-89
2023/09/10 05:52:19;;;;;;;22.88;18.17;;;;;;;16.74;100.00;100904.16;6340619;28;20046;-89
2023/09/10 05:55:24;;;;;;;22.05;17.40;;;;;;;16.80;100.00;100906.19;6330652;28;20044;-89
2023/09/10 05:58:27;;;;;;;23.30;17.55;;;;;;;16.85;100.00;100909.16;6328626;28;20178;-89
2023/09/10 06:01:28;;;;;;;22.25;17.52;;;;;;;16.92;100.00;100904.97;6332523;28;20037;-89
2023/09/10 06:04:33;;;;;;;29.42;20.80;;;;;;;16.98;100.00;100909.56;6329659;28;20040;-89
2023/09/10 06:07:35;;;;;;;27.30;20.38;;;;;;;17.05;100.00;100914.22;6336377;28;20043;-89
2023/09/10 06:10:37;;;;;;;25.83;19.45;;;;;;;17.07;100.00;100907.84;6311108;28;20039;-89
2023/09/10 06:13:39;;;;;;;28.50;20.42;;;;;;;17.08;100.00;100912.09;6334644;28;20046;-89
2023/09/10 06:16:41;;;;;;;30.02;21.60;;;;;;;17.13;100.00;100911.63;6328966;28;20170;-89
2023/09/10 06:19:43;;;;;;;27.15;19.45;;;;;;;17.19;100.00;100913.63;6336316;28;20040;-89
2023/09/10 06:22:45;;;;;;;27.92;22.05;;;;;;;17.26;100.00;100914.66;6338684;27;20035;-89
2023/09/10 06:25:47;;;;;;;28.10;21.42;;;;;;;17.35;100.00;100905.88;6342014;28;20043;-89
2023/09/10 06:28:49;;;;;;;26.92;22.15;;;;;;;17.40;100.00;100914.06;6337812;28;20465;-89
2023/09/10 06:31:51;;;;;;;31.80;22.73;;;;;;;17.46;100.00;100917.03;6332768;28;20505;-89
2023/09/10 06:34:53;;;;;;;29.80;22.35;;;;;;;17.49;100.00;100916.72;6337657;28;20278;-89
2023/09/10 06:37:55;;;;;;;30.40;23.27;;;;;;;17.53;100.00;100920.69;6340600;28;20043;-89
2023/09/10 06:40:57;;;;;;;27.63;22.38;;;;;;;17.55;100.00;100911.69;6329109;28;20032;-89
2023/09/10 06:43:59;;;;;;;32.85;24.75;;;;;;;17.62;100.00;100917.13;6324295;28;20040;-89
2023/09/10 06:47:05;;;;;;;28.75;22.40;;;;;;;17.68;100.00;100913.84;6340320;28;20117;-89
2023/09/10 06:50:07;;;;;;;31.85;24.20;;;;;;;17.76;100.00;100919.16;6332512;28;20051;-89
2023/09/10 06:53:09;;;;;;;29.67;23.00;;;;;;;17.83;100.00;100919.34;6325006;28;20557;-89
2023/09/10 06:56:11;;;;;;;28.45;21.75;;;;;;;17.90;100.00;100930.00;6340208;28;20036;-89
2023/09/10 06:59:13;;;;;;;33.92;22.65;;;;;;;17.96;100.00;100919.72;6336147;28;20040;-89
2023/09/10 07:02:14;;;;;;;25.92;21.75;;;;;;;18.01;100.00;100925.31;6336292;28;20067;-89
2023/09/10 07:05:16;;;;;;;27.63;21.77;;;;;;;18.08;100.00;100933.31;6340723;28;20508;-89
2023/09/10 07:08:19;;;;;;;31.42;22.83;;;;;;;18.13;100.00;100927.63;6333560;28;20492;-89
2023/09/10 07:11:21;;;;;;;30.05;22.95;;;;;;;18.20;100.00;100937.28;6329650;28;20050;-89
2023/09/10 07:14:23;;;;;;;29.33;20.88;;;;;;;18.29;100.00;100927.66;6336898;28;20118;-89
2023/09/10 07:17:24;;;;;;;29.58;22.80;;;;;;;18.36;100.00;100926.03;6333094;28;20507;-89
2023/09/10 07:20:27;;;;;;;28.13;21.52;;;;;;;18.47;100.00;100928.31;6329751;28;20032;-89
2023/09/10 07:23:29;;;;;;;30.92;23.63;;;;;;;18.59;100.00;100925.38;6327322;28;20040;-89
2023/09/10 07:26:31;;;;;;;29.83;24.00;;;;;;;18.68;100.00;100924.38;6334216;28;20492;-89
2023/09/10 07:29:33;;;;;;;30.92;23.58;;;;;;;18.89;100.00;100923.91;6320234;28;20522;-89
2023/09/10 07:32:35;;;;;;;29.75;23.30;;;;;;;19.04;100.00;100917.00;6315646;28;20225;-89
2023/09/10 07:35:37;;;;;;;34.78;23.58;;;;;;;19.14;100.00;100927.31;6330106;28;20482;-89
2023/09/10 07:38:39;;;;;;;30.15;22.55;;;;;;;19.21;100.00;100928.28;6338074;28;20557;-89
2023/09/10 07:41:41;;;;;;;33.80;25.67;;;;;;;19.33;100.00;100932.19;6329046;28;20032;-89
2023/09/10 07:44:43;;;;;;;34.85;24.58;;;;;;;19.53;100.00;100932.63;6338726;28;20096;-89
2023/09/10 07:47:45;;;;;;;33.47;24.23;;;;;;;19.63;100.00;100926.38;6327774;28;20555;-89
2023/09/10 07:50:56;;;;;;;31.88;23.98;;;;;;;19.74;100.00;100936.50;6334123;28;20524;-89
2023/09/10 07:53:58;;;;;;;27.85;23.13;;;;;;;19.85;100.00;100933.50;6333387;28;20386;-89
2023/09/10 07:57:00;;;;;;;29.85;22.85;;;;;;;19.91;100.00;100937.25;6329728;28;20055;-89
2023/09/10 08:00:03;;;;;;;32.55;22.95;;;;;;;19.98;100.00;100931.13;6339868;28;20505;-89
2023/09/10 08:03:14;;;;;;;28.63;21.73;;;;;;;20.04;100.00;100926.19;6334775;28;20051;-89
2023/09/10 08:06:21;;;;;;;27.00;20.83;;;;;;;20.08;100.00;100927.47;6326543;28;20138;-89
2023/09/10 08:09:23;;;;;;;23.20;19.20;;;;;;;20.11;100.00;100935.00;6328759;28;20524;-89
2023/09/10 08:12:26;;;;;;;24.80;19.08;;;;;;;20.21;100.00;100930.34;6329787;28;20040;-89
2023/09/10 08:15:28;;;;;;;22.20;18.05;;;;;;;20.30;100.00;100931.13;6311994;28;20375;-89
2023/09/10 08:18:30;;;;;;;25.02;17.70;;;;;;;20.32;100.00;100929.94;6330750;28;20047;-89
2023/09/10 08:21:32;;;;;;;23.85;19.05;;;;;;;20.38;100.00;100931.06;6333190;28;20039;-89
2023/09/10 08:24:34;;;;;;;24.55;18.77;;;;;;;20.46;100.00;100936.25;6334891;28;20028;-89
2023/09/10 08:27:36;;;;;;;21.52;18.23;;;;;;;20.62;100.00;100927.41;6331326;28;20827;-89
2023/09/10 08:30:38;;;;;;;23.75;18.50;;;;;;;20.70;100.00;100937.91;6327317;28;20371;-89
2023/09/10 08:33:40;;;;;;;23.70;18.05;;;;;;;20.78;100.00;100924.66;6326107;28;20040;-89
2023/09/10 08:36:42;;;;;;;20.27;17.40;;;;;;;20.88;100.00;100921.78;6324001;28;20502;-88
2023/09/10 08:39:45;;;;;;;21.85;18.40;;;;;;;21.00;100.00;100922.16;6337403;28;20124;-89
2023/09/10 08:43:10;;;;;;;23.30;17.27;;;;;;;21.12;100.00;100922.53;6320182;28;20039;-89
2023/09/10 08:46:13;;;;;;;19.35;15.40;;;;;;;21.20;100.00;100923.25;6333839;28;20047;-89
2023/09/10 08:49:17;;;;;;;21.80;16.73;;;;;;;21.23;100.00;100930.78;6326537;28;20055;-89
2023/09/10 08:52:20;;;;;;;19.30;15.43;;;;;;;21.30;100.00;100936.16;6337508;28;20054;-89
2023/09/10 08:55:23;;;;;;;18.38;15.23;;;;;;;21.37;100.00;100936.25;6340968;28;20122;-89
2023/09/10 08:58:26;;;;;;;17.90;13.63;;;;;;;21.52;100.00;100931.03;6333874;28;20511;-89
2023/09/10 09:01:28;;;;;;;16.58;11.98;;;;;;;21.65;100.00;100929.34;6333514;28;20420;-89
2023/09/10 09:04:32;;;;;;;16.67;13.25;;;;;;;21.77;100.00;100928.91;6317380;28;20043;-89
2023/09/10 09:07:54;;;;;;;17.30;14.18;;;;;;;21.81;100.00;100933.59;6321907;28;20110;-88
2023/09/10 09:11:05;;;;;;;18.35;14.13;;;;;;;21.85;100.00;100941.97;6323060;28;20436;-89
2023/09/10 09:14:09;;;;;;;16.25;12.50;;;;;;;21.87;100.00;100942.59;6315979;27;20039;-89
2023/09/10 09:17:12;;;;;;;17.20;12.60;;;;;;;21.93;100.00;100945.28;6333851;28;20395;-89
2023/09/10 09:20:18;;;;;;;19.17;13.15;;;;;;;22.04;100.00;100943.19;6327639;28;20075;-88
2023/09/10 09:23:25;;;;;;;13.85;12.13;;;;;;;22.17;100.00;100942.50;6332764;28;20043;-88
2023/09/10 09:26:31;;;;;;;15.10;12.63;;;;;;;22.25;100.00;100939.78;6324642;28;20074;-89
2023/09/10 09:29:33;;;;;;;15.73;11.88;;;;;;;22.32;100.00;100927.47;6325227;28;20078;-89
2023/09/10 09:32:39;;;;;;;14.20;12.75;;;;;;;22.42;100.00;100935.88;6324435;28;20028;-89
2023/09/10 09:35:45;;;;;;;14.73;12.77;;;;;;;22.51;100.00;100937.41;6324194;28;20401;-88
2023/09/10 09:38:48;;;;;;;16.23;12.68;;;;;;;22.57;100.00;100936.63;6328541;28;20036;-89
2023/09/10 09:41:51;;;;;;;16.27;13.70;;;;;;;22.66;100.00;100933.84;6336269;28;20044;-89
2023/09/10 09:44:54;;;;;;;16.35;12.88;;;;;;;22.71;100.00;100932.28;6334428;28;20491;-89
2023/09/10 09:47:56;;;;;;;17.92;13.90;;;;;;;22.85;100.00;100927.09;6328253;28;20126;-89
2023/09/10 09:50:58;;;;;;;16.88;15.05;;;;;;;22.87;100.00;100939.09;6333682;27;20044;-89
2023/09/10 09:54:01;;;;;;;16.65;14.73;;;;;;;22.94;100.00;100928.59;6329696;28;20078;-89
2023/09/10 09:57:05;;;;;;;17.35;13.85;;;;;;;22.99;100.00;100927.03;6333132;28;20064;-88
2023/09/10 10:00:10;;;;;;;17.30;13.48;;;;;;;23.09;100.00;100920.59;6335921;28;20039;-88
2023/09/10 10:03:13;;;;;;;19.40;13.10;;;;;;;23.17;100.00;100915.97;6334799;28;20204;-88
2023/09/10 10:06:17;;;;;;;16.17;13.60;;;;;;;23.31;100.00;100921.34;6330172;28;20401;-89
2023/09/10 10:09:19;;;;;;;16.00;14.30;;;;;;;23.52;100.00;100915.94;6331769;28;20553;-88
2023/09/10 10:12:22;;;;;;;14.25;12.70;;;;;;;23.54;100.00;100913.09;6335193;28;20111;-88
2023/09/10 10:15:26;;;;;;;19.25;13.27;;;;;;;23.52;100.00;100909.81;6332102;28;20048;-88
2023/09/10 10:18:28;;;;;;;15.43;13.15;;;;;;;23.53;100.00;100914.13;6332951;28;20495;-88
2023/09/10 10:21:36;;;;;;;17.33;13.52;;;;;;;23.59;100.00;100918.59;6325345;28;20040;-89
2023/09/10 10:24:39;;;;;;;15.43;12.93;;;;;;;23.67;100.00;100913.13;6318710;28;20040;-89
2023/09/10 10:27:43;;;;;;;15.90;14.02;;;;;;;23.80;100.00;100899.16;6336206;28;20036;-89
2023/09/10 10:30:58;;;;;;;14.13;12.65;;;;;;;23.94;100.00;100905.31;6325369;28;20043;-88
2023/09/10 10:34:12;;;;;;;18.13;12.77;;;;;;;23.96;100.00;100893.53;6336898;28;20071;-89
2023/09/10 10:37:45;;;;;;;15.60;12.77;;;;;;;24.10;100.00;100890.91;6331118;28;20044;-89
2023/09/10 10:40:51;;;;;;;14.63;13.00;;;;;;;24.21;100.00;100891.13;6328907;28;20148;-88
2023/09/10 10:44:13;;;;;;;15.30;12.80;;;;;;;24.24;100.00;100889.91;6331958;28;20519;-88
2023/09/10 10:47:18;;;;;;;15.80;13.18;;;;;;;24.25;100.00;100880.97;6323801;28;20036;-88
2023/09/10 10:50:26;;;;;;;16.17;12.57;;;;;;;24.35;100.00;100881.38;6331405;28;20039;-88
2023/09/10 10:53:30;;;;;;;14.07;12.55;;;;;;;24.52;100.00;100880.97;6322495;28;20025;-88
2023/09/10 10:56:36;;;;;;;15.20;12.52;;;;;;;24.58;100.00;100886.28;6321861;28;20100;-88
2023/09/10 10:59:40;;;;;;;13.70;11.18;;;;;;;24.61;100.00;100880.56;6321971;28;20048;-88
2023/09/10 11:02:45;;;;;;;13.25;11.25;;;;;;;24.61;100.00;100869.97;6322004;28;20115;-88
2023/09/10 11:06:08;;;;;;;13.38;11.98;;;;;;;24.66;100.00;100872.81;6326158;28;20702;-87
2023/09/10 11:09:38;;;;;;;12.75;11.43;;;;;;;24.77;100.00;100874.06;6326164;28;20043;-88
2023/09/10 11:13:11;;;;;;;11.25;10.10;;;;;;;24.83;100.00;100878.50;6250906;28;20652;-88
2023/09/10 11:16:17;;;;;;;11.80;10.60;;;;;;;24.97;100.00;100870.53;6251803;28;20060;-88
2023/09/10 11:19:45;;;;;;;14.10;10.25;;;;;;;25.00;100.00;100868.28;6254036;28;20461;-88
2023/09/10 11:23:09;;;;;;;11.75;10.23;;;;;;;25.05;100.00;100870.31;6256578;28;20049;-87
2023/09/10 11:26:17;;;;;;;13.63;11.32;;;;;;;25.18;100.00;100870.28;6255403;28;20622;-88
2023/09/10 11:29:21;;;;;;;13.13;10.98;;;;;;;25.21;100.00;100869.06;6260465;28;20048;-88
2023/09/10 11:32:23;;;;;;;9.82;8.40;;;;;;;25.32;100.00;100857.81;6256709;28;20041;-87
2023/09/10 11:35:28;;;;;;;10.48;9.38;;;;;;;25.38;100.00;100854.31;6251466;28;20073;-87
2023/09/10 11:38:31;;;;;;;10.23;8.35;;;;;;;25.44;100.00;100856.13;6237802;28;20052;-88
2023/09/10 11:41:33;;;;;;;9.75;8.68;;;;;;;25.46;100.00;100861.22;6230117;28;20158;-88
2023/09/10 11:44:35;;;;;;;9.35;7.68;;;;;;;25.52;100.00;100845.28;6255182;28;20503;-87
2023/09/10 11:47:44;;;;;;;9.02;8.13;;;;;;;25.54;100.00;100843.22;6256119;28;20164;-88
2023/09/10 11:50:47;;;;;;;12.13;7.55;;;;;;;25.65;100.00;100846.22;6322354;28;20327;-87
2023/09/10 11:53:49;;;;;;;9.77;7.97;;;;;;;25.69;100.00;100842.09;6317361;28;20040;-88
2023/09/10 11:56:58;;;;;;;10.60;8.30;;;;;;;25.73;100.00;100838.00;6323773;28;20559;-88
2023/09/10 12:00:01;;;;;;;8.15;7.28;;;;;;;25.77;100.00;100837.38;6323523;28;20528;-88
2023/09/10 12:03:13;;;;;;;9.60;6.97;;;;;;;25.83;100.00;100837.53;6321955;28;20409;-88
2023/09/10 12:06:16;;;;;;;7.22;6.53;;;;;;;25.89;100.00;100829.59;6323536;28;20072;-88
2023/09/10 12:09:18;;;;;;;7.68;6.90;;;;;;;25.93;100.00;100825.44;6321246;28;20525;-88
2023/09/10 12:12:29;;;;;;;8.82;6.70;;;;;;;26.09;100.00;100824.13;6313763;28;20047;-88
2023/09/10 12:15:33;;;;;;;7.82;6.43;;;;;;;26.18;100.00;100828.13;6314608;28;20406;-88
2023/09/10 12:18:36;;;;;;;6.50;5.85;;;;;;;26.30;100.00;100822.09;6331917;28;20059;-88
2023/09/10 12:21:42;;;;;;;7.10;5.22;;;;;;;26.35;100.00;100819.63;6313538;28;20051;-88
2023/09/10 12:24:45;;;;;;;6.10;5.50;;;;;;;26.53;100.00;100821.50;6308778;28;20040;-87
2023/09/10 12:27:55;;;;;;;7.88;5.57;;;;;;;26.59;100.00;100813.47;6315431;28;20038;-87
2023/09/10 12:30:59;;;;;;;6.03;4.85;;;;;;;26.63;100.00;100808.53;6326695;28;20090;-87
2023/09/10 12:34:02;;;;;;;4.53;4.07;;;;;;;26.77;100.00;100811.88;6323649;28;20048;-88
2023/09/10 12:37:03;;;;;;;5.28;4.78;;;;;;;26.83;100.00;100806.50;6326439;28;20596;-88
2023/09/10 12:40:06;;;;;;;7.32;4.30;;;;;;;27.01;100.00;100807.50;6317165;28;20397;-88
2023/09/10 12:43:08;;;;;;;5.47;4.22;;;;;;;27.21;100.00;100802.78;6324436;28;20036;-87
2023/09/10 12:46:11;;;;;;;5.25;4.32;;;;;;;27.32;100.00;100811.03;6327165;28;20135;-88
2023/09/10 12:49:14;;;;;;;9.20;4.18;;;;;;;27.34;100.00;100808.97;6318699;28;20565;-88
2023/09/10 12:52:16;;;;;;;10.00;3.83;;;;;;;27.43;100.00;100807.63;6333008;28;20043;-88
2023/09/10 12:55:18;;;;;;;5.50;4.20;;;;;;;27.64;100.00;100800.97;6324150;28;20040;-88
2023/09/10 12:58:20;;;;;;;7.80;4.60;;;;;;;27.82;100.00;100805.41;6333511;28;20042;-88
2023/09/10 13:01:25;;;;;;;7.43;4.78;;;;;;;27.91;100.00;100798.72;6327912;28;20042;-88
2023/09/10 13:04:28;;;;;;;6.78;4.03;;;;;;;28.02;97.96;100795.25;6326227;28;20035;-88
2023/09/10 13:07:32;;;;;;;5.30;4.68;;;;;;;28.17;100.00;100800.13;6316694;28;20029;-88
2023/09/10 13:10:33;;;;;;;6.78;4.90;;;;;;;28.38;100.00;100798.75;6326709;28;20044;-88
2023/09/10 13:13:43;;;;;;;7.85;4.88;;;;;;;28.50;100.00;100796.13;6322234;28;20064;-89
2023/09/10 13:16:48;;;;;;;7.30;4.57;;;;;;;28.73;100.00;100795.25;6326875;28;20043;-88
2023/09/10 13:19:50;;;;;;;9.27;4.72;;;;;;;28.84;100.00;100796.25;6319330;28;20415;-88
2023/09/10 13:22:55;;;;;;;7.32;5.05;;;;;;;28.94;100.00;100786.63;6318449;28;20478;-88
2023/09/10 13:25:57;;;;;;;10.43;4.90;;;;;;;29.08;100.00;100800.50;6319436;28;20036;-89
2023/09/10 13:28:59;;;;;;;8.07;4.75;;;;;;;29.17;100.00;100791.09;6339314;28;20043;-88
2023/09/10 13:32:01;;;;;;;8.07;4.72;;;;;;;29.29;97.33;100785.72;6329641;28;20048;-88
2023/09/10 13:35:04;;;;;;;7.53;4.53;;;;;;;29.29;91.84;100777.72;6322492;28;20398;-88
2023/09/10 13:38:07;;;;;;;8.15;4.30;;;;;;;29.40;92.88;100786.69;6328686;28;20032;-88
2023/09/10 13:41:09;;;;;;;8.48;5.53;;;;;;;29.51;97.57;100790.34;6332312;28;20035;-88
2023/09/10 13:44:11;;;;;;;7.68;4.90;;;;;;;29.47;93.61;100783.88;6339825;28;20044;-88
2023/09/10 13:47:13;;;;;;;7.18;4.68;;;;;;;29.54;86.96;100780.03;6337595;28;20397;-88
2023/09/10 13:50:15;;;;;;;10.98;4.55;;;;;;;29.54;95.26;100780.03;6320793;28;20125;-88
2023/09/10 13:53:17;;;;;;;5.57;4.45;;;;;;;29.67;92.91;100780.78;6332349;28;20047;-88
2023/09/10 13:56:19;;;;;;;12.20;5.55;;;;;;;29.82;99.50;100789.03;6339723;28;20397;-88